Time;durP1;ratioP1;P1;durP2;ratioP2;P2;SDS_P1;SDS_P2;PMS_P1;PMS_P2;Temp;Humidity;BMP_temperature;BMP_pressure;BME280_temperature;BME280_humidity;BME280_pressure;Samples;Min_cycle;Max_cycle;Signal;HPM_P1;HPM_P2
2021/11/27 00:00:18;;;;;;;0.20;0.20;;;;;;;1.01;100.00;98245.03;5067838;28;20044;-80
2021/11/27 00:02:51;;;;;;;0.20;0.20;;;;;;;1.07;100.00;98248.47;5070053;28;20052;-79
2021/11/27 00:05:22;;;;;;;0.20;0.20;;;;;;;1.04;100.00;98245.53;5067865;28;20376;-79
2021/11/27 00:07:58;;;;;;;0.20;0.20;;;;;;;1.04;100.00;98234.81;5064265;28;20048;-80
2021/11/27 00:10:29;;;;;;;0.20;0.20;;;;;;;1.02;100.00;98229.72;5068133;28;20131;-80
2021/11/27 00:13:00;;;;;;;0.20;0.20;;;;;;;1.06;100.00;98246.06;5058737;28;20057;-80
2021/11/27 00:15:35;;;;;;;0.17;0.17;;;;;;;1.02;100.00;98235.09;5069190;28;20584;-79
2021/11/27 00:18:09;;;;;;;0.13;0.13;;;;;;;1.06;100.00;98248.75;5061065;28;20049;-80
2021/11/27 00:20:48;;;;;;;0.20;0.20;;;;;;;1.06;100.00;98244.19;5058366;28;20059;-80
2021/11/27 00:23:23;;;;;;;0.20;0.20;;;;;;;1.13;100.00;98239.34;5070040;28;20055;-80
2021/11/27 00:25:53;;;;;;;0.10;0.10;;;;;;;1.08;100.00;98238.53;5059235;28;20059;-80
2021/11/27 00:28:27;;;;;;;0.20;0.20;;;;;;;1.17;100.00;98239.56;5066395;28;20044;-79
2021/11/27 00:30:59;;;;;;;0.20;0.20;;;;;;;1.15;100.00;98239.06;5062173;28;20058;-79
2021/11/27 00:33:33;;;;;;;0.22;0.22;;;;;;;1.14;100.00;98235.56;5070537;28;20043;-79
2021/11/27 00:36:07;;;;;;;0.20;0.20;;;;;;;1.10;100.00;98231.84;5066982;28;20434;-80
2021/11/27 00:38:42;;;;;;;0.20;0.20;;;;;;;1.09;100.00;98226.75;5063598;28;20044;-80
2021/11/27 00:41:12;;;;;;;0.15;0.15;;;;;;;1.11;100.00;98221.94;5065820;28;20052;-79
2021/11/27 00:43:45;;;;;;;0.20;0.20;;;;;;;1.10;100.00;98231.84;5057019;28;20056;-80
2021/11/27 00:46:19;;;;;;;0.20;0.20;;;;;;;1.11;100.00;98230.75;5065579;28;20465;-79
2021/11/27 00:48:47;;;;;;;0.20;0.20;;;;;;;1.14;100.00;98218.69;5061995;28;20064;-79
2021/11/27 00:51:23;;;;;;;0.20;0.20;;;;;;;1.01;100.00;98218.22;5059833;28;20041;-79
2021/11/27 00:53:57;;;;;;;0.20;0.20;;;;;;;1.05;100.00;98215.81;5064900;28;20130;-81
2021/11/27 00:56:32;;;;;;;0.20;0.20;;;;;;;1.08;100.00;98217.94;5058341;28;20051;-82
2021/11/27 00:59:05;;;;;;;0.20;0.20;;;;;;;1.06;100.00;98220.06;5060764;28;20049;-81
2021/11/27 01:01:38;;;;;;;0.20;0.20;;;;;;;1.11;100.00;98228.09;5055613;28;20040;-81
2021/11/27 01:04:07;;;;;;;0.20;0.20;;;;;;;1.06;100.00;98219.28;5067221;28;20056;-81
2021/11/27 01:06:41;;;;;;;0.13;0.13;;;;;;;1.05;100.00;98221.16;5062528;28;20392;-80
2021/11/27 01:09:13;;;;;;;0.20;0.20;;;;;;;1.06;100.00;98219.28;5065181;28;20052;-80
2021/11/27 01:11:51;;;;;;;0.20;0.20;;;;;;;1.07;100.00;98216.31;5068782;28;20049;-80
2021/11/27 01:14:27;;;;;;;0.20;0.20;;;;;;;1.02;100.00;98216.34;5065430;28;20048;-80
2021/11/27 01:16:59;;;;;;;0.20;0.20;;;;;;;1.09;100.00;98213.34;5061147;28;20049;-80
2021/11/27 01:19:35;;;;;;;0.20;0.20;;;;;;;0.97;100.00;98208.38;5060595;28;20434;-80
2021/11/27 01:22:11;;;;;;;0.20;0.20;;;;;;;1.01;100.00;98204.06;5061086;28;20041;-80
2021/11/27 01:24:47;;;;;;;0.20;0.20;;;;;;;1.02;100.00;98209.13;5057339;28;20052;-81
2021/11/27 01:27:20;;;;;;;0.20;0.20;;;;;;;1.05;100.00;98215.00;5061664;28;20053;-81
2021/11/27 01:29:54;;;;;;;0.20;0.20;;;;;;;1.10;100.00;98210.41;5071431;28;20055;-81
2021/11/27 01:32:27;;;;;;;0.20;0.20;;;;;;;1.07;100.00;98208.28;5065384;28;20682;-81
2021/11/27 01:35:01;;;;;;;0.20;0.20;;;;;;;1.02;100.00;98206.44;5063325;28;20063;-80
2021/11/27 01:37:31;;;;;;;0.17;0.17;;;;;;;1.06;100.00;98205.88;5062176;28;20048;-81
2021/11/27 01:40:10;;;;;;;0.20;0.20;;;;;;;0.97;100.00;98206.47;5064721;28;20528;-81
2021/11/27 01:42:44;;;;;;;0.20;0.20;;;;;;;1.07;100.00;98204.81;5057004;28;20403;-81
2021/11/27 01:45:21;;;;;;;0.22;0.22;;;;;;;1.04;100.00;98203.50;5065037;28;20397;-80
2021/11/27 01:48:00;;;;;;;0.10;0.10;;;;;;;1.06;100.00;98197.84;5058485;28;20059;-80
2021/11/27 01:50:39;;;;;;;0.20;0.20;;;;;;;1.05;100.00;98209.63;5066693;28;20059;-80
2021/11/27 01:53:08;;;;;;;0.20;0.20;;;;;;;1.06;100.00;98201.31;5059235;28;20090;-80
2021/11/27 01:55:43;;;;;;;0.20;0.20;;;;;;;1.14;100.00;98200.72;5063084;28;20040;-81
2021/11/27 01:58:16;;;;;;;0.20;0.20;;;;;;;1.10;100.00;98217.66;5062598;28;20056;-80
2021/11/27 02:00:52;;;;;;;0.10;0.10;;;;;;;1.05;100.00;98212.31;5055164;28;20041;-81
2021/11/27 02:03:25;;;;;;;0.20;0.20;;;;;;;1.07;100.00;98213.63;5063458;28;20045;-81
2021/11/27 02:06:12;;;;;;;0.20;0.20;;;;;;;1.09;100.00;98218.72;5062746;28;20519;-80
2021/11/27 02:08:49;;;;;;;0.20;0.20;;;;;;;1.07;100.00;98216.31;5068820;28;20055;-80
2021/11/27 02:11:26;;;;;;;0.20;0.20;;;;;;;1.12;100.00;98208.25;5068772;28;20057;-80
2021/11/27 02:14:00;;;;;;;0.20;0.20;;;;;;;0.99;100.00;98193.59;5070622;28;20052;-81
2021/11/27 02:16:41;;;;;;;0.20;0.20;;;;;;;1.12;100.00;98215.47;5061098;28;20044;-80
2021/11/27 02:19:09;;;;;;;0.20;0.20;;;;;;;1.15;100.00;98213.06;5059634;28;20055;-80
2021/11/27 02:21:45;;;;;;;0.20;0.20;;;;;;;1.06;100.00;98197.84;5062765;28;20056;-80
2021/11/27 02:24:16;;;;;;;0.20;0.20;;;;;;;1.15;100.00;98214.94;5053566;28;20053;-80
2021/11/27 02:26:50;;;;;;;0.20;0.20;;;;;;;1.18;100.00;98222.41;5061543;28;20047;-80
2021/11/27 02:29:28;;;;;;;0.20;0.20;;;;;;;0.97;100.00;98187.72;5069651;28;20060;-80
2021/11/27 02:32:01;;;;;;;;;;;;;;;1.10;100.00;98218.44;5062533;28;20053;-80
2021/11/27 02:34:30;;;;;;;0.20;0.20;;;;;;;1.10;100.00;98217.66;5063591;28;20376;-80
2021/11/27 02:37:03;;;;;;;0.20;0.20;;;;;;;1.11;100.00;98221.94;5060616;28;20666;-80
2021/11/27 02:39:43;;;;;;;0.10;0.10;;;;;;;1.02;100.00;98209.13;5065410;28;20049;-80
2021/11/27 02:42:21;;;;;;;0.20;0.20;;;;;;;1.12;100.00;98210.94;5074970;28;20072;-80
2021/11/27 02:44:54;;;;;;;0.10;0.10;;;;;;;1.05;100.00;98205.09;5064375;28;20059;-80
2021/11/27 02:47:23;;;;;;;0.13;0.13;;;;;;;1.08;100.00;98217.94;5059711;28;20044;-80
2021/11/27 02:49:57;;;;;;;0.15;0.15;;;;;;;1.03;100.00;98207.25;5065173;28;20120;-80
2021/11/27 02:52:32;;;;;;;0.10;0.10;;;;;;;1.02;100.00;98194.91;5078659;28;20041;-80
2021/11/27 02:55:07;;;;;;;0.20;0.20;;;;;;;1.00;100.00;98200.56;5059869;28;20497;-80
2021/11/27 02:57:35;;;;;;;0.22;0.22;;;;;;;1.02;100.00;98192.25;5063537;28;20048;-80
2021/11/27 03:00:13;;;;;;;0.20;0.20;;;;;;;1.10;100.00;98209.63;5061015;28;20049;-81
2021/11/27 03:02:48;;;;;;;0.20;0.20;;;;;;;1.01;100.00;98194.13;5070092;28;20048;-80
2021/11/27 03:05:22;;;;;;;0.20;0.20;;;;;;;1.06;100.00;98205.88;5062648;28;20057;-80
2021/11/27 03:07:57;;;;;;;0.20;0.20;;;;;;;1.07;100.00;98207.50;5070068;28;20053;-81
2021/11/27 03:10:26;;;;;;;0.20;0.20;;;;;;;1.12;100.00;98208.25;5063099;28;20052;-80
2021/11/27 03:12:59;;;;;;;0.10;0.10;;;;;;;1.05;100.00;98205.09;5073317;28;20060;-80
2021/11/27 03:15:27;;;;;;;0.13;0.13;;;;;;;1.09;100.00;98206.16;5067613;28;20044;-80
2021/11/27 03:18:01;;;;;;;0.20;0.20;;;;;;;1.04;100.00;98203.50;5059531;28;20056;-80
2021/11/27 03:20:34;;;;;;;0.10;0.10;;;;;;;1.04;100.00;98203.50;5070333;28;20040;-80
2021/11/27 03:23:08;;;;;;;0.20;0.20;;;;;;;1.10;100.00;98206.94;5062839;28;20076;-81
2021/11/27 03:25:42;;;;;;;0.20;0.20;;;;;;;1.04;100.00;98195.47;5062306;28;20074;-80
2021/11/27 03:28:16;;;;;;;0.20;0.20;;;;;;;1.06;100.00;98197.84;5070182;28;20036;-80
2021/11/27 03:30:44;;;;;;;0.20;0.20;;;;;;;1.16;100.00;98208.47;5076371;28;20055;-80
2021/11/27 03:33:18;;;;;;;0.13;0.13;;;;;;;1.10;100.00;98213.09;5065963;28;20048;-80
2021/11/27 03:35:51;;;;;;;0.20;0.20;;;;;;;1.20;100.00;98206.84;5062929;28;20056;-81
2021/11/27 03:38:22;;;;;;;0.20;0.20;;;;;;;1.12;100.00;98215.47;5067538;28;20393;-80
2021/11/27 03:40:55;;;;;;;0.20;0.20;;;;;;;1.15;100.00;98205.03;5062594;28;20409;-80
2021/11/27 03:43:29;;;;;;;0.20;0.20;;;;;;;1.13;100.00;98209.88;5065732;28;20079;-80
2021/11/27 03:45:57;;;;;;;0.10;0.10;;;;;;;1.12;100.00;98208.25;5063649;28;20080;-80
2021/11/27 03:48:33;;;;;;;0.20;0.20;;;;;;;1.13;100.00;98212.53;5059825;28;20052;-81
2021/11/27 03:51:15;;;;;;;0.20;0.20;;;;;;;1.09;100.00;98216.84;5060093;28;20052;-80
2021/11/27 03:53:50;;;;;;;0.20;0.20;;;;;;;1.09;100.00;98211.50;5066400;28;20059;-80
2021/11/27 03:56:27;;;;;;;0.20;0.20;;;;;;;1.13;100.00;98215.22;5070788;28;20064;-80
2021/11/27 03:58:59;;;;;;;0.20;0.20;;;;;;;1.09;100.00;98206.16;5069246;28;20063;-80
2021/11/27 04:01:33;;;;;;;0.30;0.30;;;;;;;1.14;100.00;98210.66;5064605;28;20496;-80
2021/11/27 04:04:06;;;;;;;0.20;0.20;;;;;;;1.13;100.00;98211.72;5069874;28;20049;-80
2021/11/27 04:06:41;;;;;;;0.20;0.20;;;;;;;1.07;100.00;98212.84;5063008;28;20469;-80
2021/11/27 04:09:11;;;;;;;0.20;0.20;;;;;;;1.10;100.00;98213.09;5069215;28;20385;-80
2021/11/27 04:11:45;;;;;;;0.20;0.20;;;;;;;1.06;100.00;98212.03;5064865;28;20522;-80
2021/11/27 04:14:28;;;;;;;0.20;0.20;;;;;;;1.00;100.00;98205.91;5066476;28;20059;-80
2021/11/27 04:17:04;;;;;;;0.20;0.20;;;;;;;1.00;100.00;98210.47;5067736;28;20076;-81
2021/11/27 04:19:37;;;;;;;0.20;0.20;;;;;;;1.06;100.00;98212.03;5058364;28;20412;-80
2021/11/27 04:22:11;;;;;;;0.20;0.20;;;;;;;0.99;100.00;98201.63;5063814;28;20048;-80
2021/11/27 04:24:55;;;;;;;0.30;0.30;;;;;;;1.05;100.00;98213.13;5058351;28;20443;-80
2021/11/27 04:27:30;;;;;;;0.20;0.20;;;;;;;1.07;100.00;98213.63;5069713;28;20078;-80
2021/11/27 04:29:58;;;;;;;0.20;0.20;;;;;;;1.06;100.00;98214.72;5072250;28;20063;-80
2021/11/27 04:32:32;;;;;;;0.20;0.20;;;;;;;1.02;100.00;98219.03;5067164;28;20048;-80
2021/11/27 04:35:15;;;;;;;0.10;0.10;;;;;;;1.02;100.00;98217.16;5064482;28;20057;-80
2021/11/27 04:37:49;;;;;;;0.25;0.25;;;;;;;1.05;100.00;98215.00;5068929;28;20056;-80
2021/11/27 04:40:25;;;;;;;0.20;0.20;;;;;;;1.01;100.00;98220.13;5066403;28;20071;-80
2021/11/27 04:43:01;;;;;;;0.15;0.15;;;;;;;1.11;100.00;98221.94;5067712;28;20068;-79
2021/11/27 04:45:35;;;;;;;0.20;0.20;;;;;;;1.02;100.00;98229.72;5060051;28;20052;-80
2021/11/27 04:48:08;;;;;;;0.20;0.20;;;;;;;1.05;100.00;98226.53;5058253;28;20053;-80
2021/11/27 04:50:38;;;;;;;0.20;0.20;;;;;;;1.03;100.00;98226.00;5061384;28;20048;-80
2021/11/27 04:53:14;;;;;;;0.20;0.20;;;;;;;1.01;100.00;98228.16;5066046;28;20649;-80
2021/11/27 04:55:49;;;;;;;0.20;0.20;;;;;;;1.11;100.00;98232.66;5055743;28;20040;-80
2021/11/27 04:58:22;;;;;;;0.20;0.20;;;;;;;1.05;100.00;98236.41;5061677;28;20056;-80
2021/11/27 05:00:53;;;;;;;0.20;0.20;;;;;;;1.05;100.00;98233.75;5057830;28;20056;-80
2021/11/27 05:03:37;;;;;;;0.20;0.20;;;;;;;0.94;100.00;98235.69;5060536;28;20053;-80
2021/11/27 05:06:11;;;;;;;0.10;0.10;;;;;;;0.85;100.00;98240.81;5068398;28;20059;-80
2021/11/27 05:08:45;;;;;;;0.20;0.20;;;;;;;0.85;100.00;98233.56;5063791;28;20060;-80
2021/11/27 05:11:20;;;;;;;0.20;0.20;;;;;;;0.80;100.00;98233.63;5062048;28;20107;-80
2021/11/27 05:13:51;;;;;;;0.17;0.17;;;;;;;0.73;100.00;98232.31;5059793;28;20044;-80
2021/11/27 05:16:25;;;;;;;0.20;0.20;;;;;;;0.74;100.00;98226.69;5066820;28;20052;-80
2021/11/27 05:18:55;;;;;;;0.20;0.20;;;;;;;0.73;100.00;98248.38;5053121;28;20089;-81
2021/11/27 05:21:47;;;;;;;0.10;0.10;;;;;;;0.76;100.00;98242.47;5063491;28;20056;-81
2021/11/27 05:24:21;;;;;;;0.20;0.20;;;;;;;0.76;100.00;98250.50;5062947;28;20044;-80
2021/11/27 05:27:09;;;;;;;0.20;0.20;;;;;;;0.78;100.00;98245.69;5064719;28;20060;-80
2021/11/27 05:29:56;;;;;;;0.20;0.20;;;;;;;0.90;100.00;98250.69;5063333;28;20051;-80
2021/11/27 05:32:50;;;;;;;0.20;0.20;;;;;;;0.80;100.00;98251.53;5062391;28;20065;-80
2021/11/27 05:35:31;;;;;;;0.20;0.20;;;;;;;0.84;100.00;98247.25;5065660;28;20056;-80
2021/11/27 05:38:05;;;;;;;0.20;0.20;;;;;;;0.67;100.00;98243.03;5064174;28;20492;-80
2021/11/27 05:40:34;;;;;;;0.20;0.20;;;;;;;0.74;100.00;98258.81;5063483;28;20044;-81
2021/11/27 05:43:09;;;;;;;0.13;0.13;;;;;;;0.69;100.00;98250.78;5067832;28;20052;-80
2021/11/27 05:45:43;;;;;;;0.20;0.20;;;;;;;0.68;100.00;98262.59;5063556;28;20052;-80
2021/11/27 05:48:20;;;;;;;0.20;0.20;;;;;;;0.67;100.00;98256.41;5063930;28;20053;-80
2021/11/27 05:51:17;;;;;;;0.20;0.20;;;;;;;0.66;100.00;98257.53;5060823;28;20040;-81
2021/11/27 05:53:45;;;;;;;0.20;0.20;;;;;;;0.65;100.00;98250.56;5059696;28;20057;-80
2021/11/27 05:56:18;;;;;;;0.20;0.20;;;;;;;0.69;100.00;98266.84;5060324;28;20045;-80
2021/11/27 05:58:48;;;;;;;0.20;0.20;;;;;;;0.61;100.00;98268.25;5065033;28;20051;-80
2021/11/27 06:01:21;;;;;;;0.25;0.25;;;;;;;0.62;100.00;98280.56;5063331;28;20052;-80
2021/11/27 06:03:54;;;;;;;0.10;0.10;;;;;;;0.53;100.00;98274.16;5068835;28;20049;-81
2021/11/27 06:06:27;;;;;;;0.20;0.20;;;;;;;0.47;100.00;98272.56;5060416;28;20052;-80
2021/11/27 06:09:00;;;;;;;0.20;0.20;;;;;;;0.45;100.00;98280.84;5065913;28;20049;-80
2021/11/27 06:11:34;;;;;;;0.15;0.15;;;;;;;0.40;100.00;98264.84;5062051;28;20051;-80
2021/11/27 06:14:08;;;;;;;0.20;0.20;;;;;;;0.41;100.00;98281.69;5072912;28;20052;-80
2021/11/27 06:16:37;;;;;;;0.20;0.20;;;;;;;0.42;100.00;98264.56;5063185;28;20044;-80
2021/11/27 06:19:10;;;;;;;0.20;0.20;;;;;;;0.46;100.00;98279.00;5063372;28;20385;-80
2021/11/27 06:21:44;;;;;;;0.20;0.20;;;;;;;0.48;100.00;98279.50;5064002;28;20051;-80
2021/11/27 06:24:17;;;;;;;0.13;0.13;;;;;;;0.47;100.00;98280.56;5059736;28;20047;-80
2021/11/27 06:26:50;;;;;;;0.10;0.10;;;;;;;0.52;100.00;98274.44;5070150;28;20040;-80
2021/11/27 06:29:25;;;;;;;0.20;0.20;;;;;;;0.49;100.00;98275.78;5072652;28;20045;-79
2021/11/27 06:31:58;;;;;;;0.15;0.15;;;;;;;0.56;100.00;98283.50;5062720;28;20056;-80
2021/11/27 06:34:32;;;;;;;0.20;0.20;;;;;;;0.50;100.00;98280.06;5071419;28;20392;-81
2021/11/27 06:37:05;;;;;;;0.20;0.20;;;;;;;0.48;100.00;98283.00;5066113;28;20489;-80
2021/11/27 06:39:38;;;;;;;0.15;0.15;;;;;;;0.47;100.00;98288.59;5065851;28;20362;-80
2021/11/27 06:42:07;;;;;;;0.22;0.22;;;;;;;0.49;100.00;98297.19;5065659;28;20086;-80
2021/11/27 06:45:05;;;;;;;0.20;0.20;;;;;;;0.51;100.00;98292.34;5061957;28;20053;-80
2021/11/27 06:47:57;;;;;;;0.20;0.20;;;;;;;0.57;100.00;98301.19;5070818;28;20059;-80
2021/11/27 06:50:31;;;;;;;0.20;0.20;;;;;;;0.52;100.00;98304.66;5067085;28;20049;-79
2021/11/27 06:53:04;;;;;;;0.20;0.20;;;;;;;0.50;100.00;98298.78;5063323;28;20056;-80
2021/11/27 06:55:33;;;;;;;0.20;0.20;;;;;;;0.61;100.00;98315.63;5059813;28;20059;-80
2021/11/27 06:58:02;;;;;;;0.20;0.20;;;;;;;0.63;100.00;98326.84;5074113;28;20052;-81
2021/11/27 07:00:37;;;;;;;0.10;0.10;;;;;;;0.60;100.00;98317.47;5066836;28;20123;-80
2021/11/27 07:03:35;;;;;;;0.20;0.20;;;;;;;0.52;100.00;98319.91;5076015;28;20074;-80
2021/11/27 07:06:37;;;;;;;0.20;0.20;;;;;;;0.63;100.00;98332.19;5049691;28;20057;-81
2021/11/27 07:09:05;;;;;;;0.20;0.20;;;;;;;0.66;100.00;98337.00;5066939;28;20063;-80
2021/11/27 07:12:07;;;;;;;0.20;0.20;;;;;;;0.61;100.00;98339.72;5064027;28;20045;-81
2021/11/27 07:14:47;;;;;;;0.20;0.20;;;;;;;0.60;100.00;98341.56;5055576;28;20431;-80
2021/11/27 07:17:21;;;;;;;0.20;0.20;;;;;;;0.68;100.00;98342.91;5060919;28;20036;-80
2021/11/27 07:19:55;;;;;;;0.20;0.20;;;;;;;0.60;100.00;98338.09;5064630;28;20057;-80
2021/11/27 07:22:24;;;;;;;0.20;0.20;;;;;;;0.66;100.00;98343.19;5066461;28;20396;-80
2021/11/27 07:24:58;;;;;;;0.20;0.20;;;;;;;0.61;100.00;98334.34;5063224;28;20045;-79
2021/11/27 07:27:46;;;;;;;0.20;0.20;;;;;;;0.58;100.00;98337.56;5062766;28;20049;-80
2021/11/27 07:30:14;;;;;;;0.13;0.13;;;;;;;0.68;100.00;98334.88;5069720;28;20045;-81
2021/11/27 07:32:48;;;;;;;0.20;0.20;;;;;;;0.67;100.00;98331.38;5062037;28;20052;-80
2021/11/27 07:35:21;;;;;;;0.20;0.20;;;;;;;0.70;100.00;98346.09;5059742;28;20057;-80
2021/11/27 07:37:49;;;;;;;0.20;0.20;;;;;;;0.70;100.00;98351.44;5062571;28;20053;-80
2021/11/27 07:40:23;;;;;;;0.20;0.20;;;;;;;0.66;100.00;98343.19;5066525;28;20049;-79
2021/11/27 07:42:58;;;;;;;0.20;0.20;;;;;;;0.79;100.00;98360.53;5064452;28;20056;-80
2021/11/27 07:45:42;;;;;;;0.20;0.20;;;;;;;0.76;100.00;98352.22;5065889;28;20049;-80
2021/11/27 07:48:35;;;;;;;0.20;0.20;;;;;;;0.73;100.00;98344.75;5061470;28;20420;-80
2021/11/27 07:51:28;;;;;;;0.20;0.20;;;;;;;0.76;100.00;98357.59;5074750;28;20543;-80
2021/11/27 07:54:03;;;;;;;0.20;0.20;;;;;;;0.84;100.00;98355.16;5060034;28;20079;-79
2021/11/27 07:56:32;;;;;;;0.20;0.20;;;;;;;0.69;100.00;98339.13;5069937;28;20048;-80
2021/11/27 07:59:00;;;;;;;0.20;0.20;;;;;;;0.80;100.00;98355.97;5059502;28;20052;-80
2021/11/27 08:01:33;;;;;;;0.13;0.13;;;;;;;0.83;100.00;98364.25;5064132;28;20048;-80
2021/11/27 08:04:08;;;;;;;0.10;0.10;;;;;;;0.84;100.00;98363.19;5069316;28;20040;-80
2021/11/27 08:06:41;;;;;;;0.20;0.20;;;;;;;0.90;100.00;98372.00;5068322;28;20492;-80
2021/11/27 08:09:14;;;;;;;0.20;0.20;;;;;;;0.81;100.00;98355.69;5073520;28;20045;-80
2021/11/27 08:11:48;;;;;;;0.20;0.20;;;;;;;1.02;100.00;98369.00;5071667;28;20051;-80
2021/11/27 08:14:21;;;;;;;0.25;0.25;;;;;;;0.92;100.00;98356.47;5069522;28;20465;-81
2021/11/27 08:16:54;;;;;;;0.20;0.20;;;;;;;1.02;100.00;98360.97;5062298;28;20057;-79
2021/11/27 08:19:30;;;;;;;0.20;0.20;;;;;;;0.98;100.00;98368.78;5069936;28;20056;-80
2021/11/27 08:22:03;;;;;;;0.13;0.13;;;;;;;0.99;100.00;98374.91;5063221;28;20056;-81
2021/11/27 08:24:37;;;;;;;0.20;0.20;;;;;;;1.01;100.00;98372.78;5056170;28;20370;-81
2021/11/27 08:27:11;;;;;;;0.20;0.20;;;;;;;1.04;100.00;98376.78;5066327;28;20053;-81
2021/11/27 08:29:39;;;;;;;0.20;0.20;;;;;;;1.14;100.00;98374.84;5067345;28;20048;-80
2021/11/27 08:32:12;;;;;;;0.20;0.20;;;;;;;1.10;100.00;98378.38;5058942;28;20045;-82
2021/11/27 08:34:47;;;;;;;0.20;0.20;;;;;;;1.15;100.00;98381.03;5066224;28;20523;-83
2021/11/27 08:37:15;;;;;;;0.20;0.20;;;;;;;1.15;100.00;98389.06;5060780;28;20052;-82
2021/11/27 08:39:49;;;;;;;0.20;0.20;;;;;;;1.23;100.00;98387.69;5064456;28;20048;-81
2021/11/27 08:42:22;;;;;;;0.20;0.20;;;;;;;1.10;100.00;98373.81;5056912;28;20052;-82
2021/11/27 08:44:55;;;;;;;0.10;0.10;;;;;;;1.22;100.00;98378.06;5062460;28;20059;-81
2021/11/27 08:47:28;;;;;;;0.20;0.20;;;;;;;1.11;100.00;98366.59;5063352;28;20072;-81
2021/11/27 08:50:04;;;;;;;0.20;0.20;;;;;;;1.25;100.00;98386.34;5055386;28;20049;-81
2021/11/27 08:52:39;;;;;;;0.20;0.20;;;;;;;1.22;100.00;98386.09;5066854;28;20389;-82
2021/11/27 08:55:09;;;;;;;0.20;0.20;;;;;;;1.22;100.00;98389.56;5068204;28;20067;-82
2021/11/27 08:57:43;;;;;;;0.20;0.20;;;;;;;1.27;100.00;98386.88;5060986;28;20492;-82
2021/11/27 09:00:12;;;;;;;0.17;0.17;;;;;;;1.32;100.00;98389.50;5066489;28;20064;-82
2021/11/27 09:02:46;;;;;;;0.20;0.20;;;;;;;1.30;100.00;98399.72;5059620;28;20397;-82
2021/11/27 09:05:20;;;;;;;0.20;0.20;;;;;;;1.26;100.00;98395.19;5072776;28;20045;-82
2021/11/27 09:07:54;;;;;;;0.20;0.20;;;;;;;1.30;100.00;98390.91;5058716;28;20055;-81
2021/11/27 09:10:27;;;;;;;0.20;0.20;;;;;;;1.32;100.00;98402.13;5063876;28;20048;-82
2021/11/27 09:12:55;;;;;;;0.20;0.20;;;;;;;1.38;100.00;98401.00;5072645;28;20044;-82
2021/11/27 09:15:29;;;;;;;0.17;0.17;;;;;;;1.41;100.00;98394.31;5053782;28;20064;-82
2021/11/27 09:18:02;;;;;;;0.20;0.20;;;;;;;1.41;100.00;98408.53;5057126;28;20057;-82
2021/11/27 09:20:37;;;;;;;0.20;0.20;;;;;;;1.38;100.00;98408.25;5061282;28;20666;-81
2021/11/27 09:23:10;;;;;;;0.20;0.20;;;;;;;1.42;100.00;98406.63;5063535;28;20377;-81
2021/11/27 09:25:43;;;;;;;0.20;0.20;;;;;;;1.38;100.00;98413.63;5061467;28;20048;-81
2021/11/27 09:28:17;;;;;;;0.10;0.10;;;;;;;1.35;100.00;98413.09;5059283;28;20059;-82
2021/11/27 09:30:51;;;;;;;0.20;0.20;;;;;;;1.38;100.00;98411.72;5060538;28;20048;-82
2021/11/27 09:33:24;;;;;;;0.20;0.20;;;;;;;1.54;100.00;98409.78;5056999;28;20053;-82
2021/11/27 09:36:01;;;;;;;0.17;0.17;;;;;;;1.42;100.00;98410.09;5061654;28;20052;-82
2021/11/27 09:38:30;;;;;;;0.20;0.20;;;;;;;1.41;100.00;98423.78;5056157;28;20048;-82
2021/11/27 09:41:11;;;;;;;0.20;0.20;;;;;;;1.48;100.00;98417.06;5064697;28;20521;-82
2021/11/27 09:43:43;;;;;;;0.20;0.20;;;;;;;1.46;100.00;98419.19;5057538;28;20041;-82
2021/11/27 09:46:20;;;;;;;0.20;0.20;;;;;;;1.43;100.00;98425.13;5074027;28;20056;-82
2021/11/27 09:48:55;;;;;;;0.17;0.17;;;;;;;1.34;100.00;98424.06;5061626;28;20556;-82
2021/11/27 09:51:27;;;;;;;0.20;0.20;;;;;;;1.42;100.00;98426.19;5065204;28;20052;-82
2021/11/27 09:53:58;;;;;;;0.20;0.20;;;;;;;1.45;100.00;98427.53;5059335;28;20057;-82
2021/11/27 09:56:31;;;;;;;0.20;0.20;;;;;;;1.30;100.00;98415.81;5056183;28;20041;-82
2021/11/27 09:59:05;;;;;;;0.20;0.20;;;;;;;1.47;100.00;98426.16;5057381;28;20389;-83
2021/11/27 10:01:40;;;;;;;0.30;0.30;;;;;;;1.47;100.00;98422.69;5059050;28;20397;-82
2021/11/27 10:04:14;;;;;;;0.20;0.20;;;;;;;1.44;100.00;98407.97;5060500;28;20044;-82
2021/11/27 10:06:50;;;;;;;0.20;0.20;;;;;;;1.63;100.00;98429.59;5054450;28;20067;-82
2021/11/27 10:09:24;;;;;;;0.20;0.20;;;;;;;1.47;100.00;98428.84;5059597;28;20052;-82
2021/11/27 10:11:57;;;;;;;0.20;0.20;;;;;;;1.45;100.00;98414.13;5061524;28;20052;-83
2021/11/27 10:14:30;;;;;;;0.20;0.20;;;;;;;1.54;100.00;98425.88;5056684;28;20063;-83
2021/11/27 10:17:13;;;;;;;0.20;0.20;;;;;;;1.47;100.00;98423.50;5061030;28;20606;-83
2021/11/27 10:19:57;;;;;;;0.20;0.20;;;;;;;1.48;100.00;98427.78;5061851;28;20049;-83
2021/11/27 10:22:47;;;;;;;0.20;0.20;;;;;;;1.59;100.00;98435.75;5051267;28;20048;-83
2021/11/27 10:25:31;;;;;;;0.20;0.20;;;;;;;1.53;100.00;98441.16;5056582;28;21524;-82
2021/11/27 10:28:09;;;;;;;0.20;0.20;;;;;;;1.49;100.00;98439.28;5044446;28;20091;-83
2021/11/27 10:30:46;;;;;;;0.20;0.20;;;;;;;1.47;100.00;98444.94;5046373;28;20060;-82
2021/11/27 10:33:22;;;;;;;0.20;0.20;;;;;;;1.37;100.00;98439.63;5050539;28;20301;-82
2021/11/27 10:35:59;;;;;;;0.20;0.20;;;;;;;1.38;100.00;98443.88;5048004;28;20060;-83
2021/11/27 10:38:47;;;;;;;0.20;0.20;;;;;;;1.44;100.00;98444.69;5047073;28;20057;-82
2021/11/27 10:41:17;;;;;;;0.10;0.10;;;;;;;1.39;100.00;98437.47;5047133;28;20056;-82
2021/11/27 10:44:00;;;;;;;0.20;0.20;;;;;;;1.38;100.00;98449.25;5045662;28;20696;-81
2021/11/27 10:46:30;;;;;;;0.20;0.20;;;;;;;1.38;100.00;98445.78;5055104;28;20052;-81
2021/11/27 10:49:05;;;;;;;0.22;0.22;;;;;;;1.33;100.00;98444.72;5060596;28;20064;-82
2021/11/27 10:51:35;;;;;;;0.25;0.25;;;;;;;1.41;100.00;98448.72;5077541;28;20056;-82
2021/11/27 10:54:07;;;;;;;0.20;0.20;;;;;;;1.17;100.00;98422.56;5063892;28;20425;-82
2021/11/27 10:56:45;;;;;;;0.20;0.20;;;;;;;1.39;100.00;98444.72;5058895;28;20040;-82
2021/11/27 10:59:19;;;;;;;0.20;0.20;;;;;;;1.28;100.00;98446.63;5067246;28;20040;-82
2021/11/27 11:02:04;;;;;;;0.25;0.25;;;;;;;1.30;100.00;98452.53;5058490;28;20036;-81
2021/11/27 11:04:37;;;;;;;0.10;0.10;;;;;;;1.27;100.00;98443.16;5059830;28;20052;-82
2021/11/27 11:07:16;;;;;;;0.20;0.20;;;;;;;1.36;100.00;98449.53;5060507;28;20049;-82
2021/11/27 11:10:12;;;;;;;0.15;0.15;;;;;;;1.20;100.00;98445.28;5061204;28;20365;-81
2021/11/27 11:12:50;;;;;;;0.20;0.20;;;;;;;1.15;100.00;98446.13;5071367;28;20051;-82
2021/11/27 11:15:24;;;;;;;;;;;;;;;1.12;100.00;98446.69;5067839;28;20052;-82
2021/11/27 11:17:55;;;;;;;0.20;0.20;;;;;;;1.03;100.00;98445.63;5064758;28;19932;-82
2021/11/27 11:20:29;;;;;;;0.20;0.20;;;;;;;0.97;100.00;98446.72;5068439;28;20519;-81
2021/11/27 11:23:09;;;;;;;0.20;0.20;;;;;;;0.98;100.00;98442.94;5066389;28;20102;-81
2021/11/27 11:26:02;;;;;;;0.20;0.20;;;;;;;0.98;100.00;98446.44;5064964;28;20032;-82
2021/11/27 11:28:38;;;;;;;0.20;0.20;;;;;;;1.07;100.00;98452.03;5061545;28;20045;-82
2021/11/27 11:31:14;;;;;;;0.20;0.20;;;;;;;1.11;100.00;98442.38;5066143;28;20048;-82
2021/11/27 11:33:49;;;;;;;0.20;0.20;;;;;;;1.15;100.00;98448.81;5067624;28;20073;-82
2021/11/27 11:36:20;;;;;;;0.20;0.20;;;;;;;1.24;100.00;98446.34;5067807;28;20052;-81
2021/11/27 11:38:55;;;;;;;0.20;0.20;;;;;;;1.28;100.00;98452.78;5063658;28;20056;-81
2021/11/27 11:41:29;;;;;;;0.20;0.20;;;;;;;1.31;100.00;98454.09;5061463;28;20040;-82
2021/11/27 11:44:02;;;;;;;0.13;0.13;;;;;;;1.31;100.00;98451.44;5059907;28;20049;-82
2021/11/27 11:46:37;;;;;;;0.20;0.20;;;;;;;1.22;100.00;98445.84;5064578;28;20060;-82
2021/11/27 11:49:06;;;;;;;0.20;0.20;;;;;;;1.18;100.00;98442.91;5065075;28;20036;-82
2021/11/27 11:51:51;;;;;;;0.10;0.10;;;;;;;1.28;100.00;98450.09;5060531;28;20048;-82
2021/11/27 11:54:29;;;;;;;0.20;0.20;;;;;;;1.45;100.00;98447.09;5062321;28;20419;-82
2021/11/27 11:57:06;;;;;;;0.20;0.20;;;;;;;1.47;100.00;98454.88;5064715;28;20048;-82
2021/11/27 11:59:41;;;;;;;0.20;0.20;;;;;;;1.44;100.00;98450.84;5061233;28;20063;-82
2021/11/27 12:02:17;;;;;;;0.20;0.20;;;;;;;1.55;100.00;98450.78;5064332;28;20052;-82
2021/11/27 12:05:14;;;;;;;0.20;0.20;;;;;;;1.57;100.00;98460.16;5063622;28;20052;-82
2021/11/27 12:07:50;;;;;;;0.20;0.20;;;;;;;1.51;100.00;98456.72;5065039;28;20526;-83
2021/11/27 12:10:20;;;;;;;0.20;0.20;;;;;;;1.50;100.00;98457.78;5056987;28;20052;-83